Time;durP1;ratioP1;P1;durP2;ratioP2;P2;SDS_P1;SDS_P2;PMS_P1;PMS_P2;Temp;Humidity;BMP_temperature;BMP_pressure;BME280_temperature;BME280_humidity;BME280_pressure;Samples;Min_cycle;Max_cycle;Signal;HPM_P1;HPM_P2
2022/05/01 00:00:43;;;;;;;3.17;2.97;;;;;;;12.66;68.11;92741.50;5035508;28;20490;-72
2022/05/01 00:03:30;;;;;;;2.47;2.37;;;;;;;12.71;67.71;92751.44;5037750;28;20589;-73
2022/05/01 00:06:00;;;;;;;3.17;2.97;;;;;;;12.68;67.54;92738.88;5035601;28;20240;-73
2022/05/01 00:08:28;;;;;;;2.90;2.70;;;;;;;12.35;68.52;92749.75;5035118;28;20481;-73
2022/05/01 00:10:55;;;;;;;2.63;2.43;;;;;;;12.27;68.27;92744.25;5036640;28;20470;-73
2022/05/01 00:13:23;;;;;;;2.43;2.33;;;;;;;12.48;68.17;92760.13;5038149;28;20190;-73
2022/05/01 00:15:51;;;;;;;2.77;2.67;;;;;;;12.50;68.03;92752.47;5039101;28;20723;-72
2022/05/01 00:18:19;;;;;;;3.20;3.00;;;;;;;12.67;67.71;92755.84;5038931;28;20507;-73
2022/05/01 00:20:46;;;;;;;3.20;3.00;;;;;;;12.43;68.16;92751.94;5038424;28;20502;-73
2022/05/01 00:23:16;;;;;;;3.53;3.23;;;;;;;12.66;67.60;92753.38;5038431;28;20654;-73
2022/05/01 00:25:43;;;;;;;6.57;3.77;;;;;;;12.41;67.58;92721.59;5049955;28;20283;-73
2022/05/01 00:28:11;;;;;;;7.13;4.63;;;;;;;12.43;68.00;92744.31;5038632;28;20554;-73
2022/05/01 00:30:39;;;;;;;5.60;4.17;;;;;;;12.22;68.44;92730.97;5039098;28;20554;-73
2022/05/01 00:38:37;;;;;;;3.53;3.30;;;;;;;12.69;67.35;92716.00;5038453;28;20294;-73
2022/05/01 00:41:07;;;;;;;3.30;3.03;;;;;;;12.73;67.14;92707.34;5038621;28;20216;-72
2022/05/01 00:43:34;;;;;;;3.63;3.43;;;;;;;12.68;66.70;92703.41;5038970;28;20286;-73
2022/05/01 00:46:01;;;;;;;3.13;2.93;;;;;;;12.64;66.67;92714.59;5038804;28;20569;-73
2022/05/01 00:48:29;;;;;;;3.37;2.80;;;;;;;12.27;67.43;92708.78;5038459;28;20555;-74
2022/05/01 00:50:56;;;;;;;2.93;2.73;;;;;;;12.09;67.73;92696.16;5038483;28;20481;-73
2022/05/01 00:53:23;;;;;;;4.03;3.73;;;;;;;12.09;67.96;92714.69;5038719;28;20447;-73
2022/05/01 00:55:52;;;;;;;3.50;3.23;;;;;;;12.34;67.37;92721.94;5038144;28;20185;-73
2022/05/01 00:58:20;;;;;;;2.93;2.83;;;;;;;12.26;67.33;92719.81;5038989;28;20586;-73
2022/05/01 01:00:48;;;;;;;3.50;3.30;;;;;;;12.15;67.11;92709.34;5038105;28;20592;-73
2022/05/01 01:03:15;;;;;;;2.70;2.60;;;;;;;12.20;67.35;92711.66;5038838;28;20193;-73
2022/05/01 01:05:44;;;;;;;3.07;2.90;;;;;;;12.25;67.53;92710.56;5040141;28;20194;-72
2022/05/01 01:08:12;;;;;;;3.33;2.53;;;;;;;12.37;67.39;92717.56;5044101;28;20639;-73
2022/05/01 01:10:39;;;;;;;2.83;2.67;;;;;;;12.52;66.37;92705.03;5038210;28;20492;-73
2022/05/01 01:13:08;;;;;;;3.57;3.37;;;;;;;12.60;67.04;92708.03;5038149;28;20208;-73
2022/05/01 01:15:35;;;;;;;4.03;3.73;;;;;;;12.51;66.78;92716.91;5037468;28;20478;-73
2022/05/01 01:18:03;;;;;;;8.13;2.83;;;;;;;12.29;66.96;92722.16;5037910;28;20201;-73
2022/05/01 01:20:32;;;;;;;3.70;3.50;;;;;;;12.42;66.99;92722.41;5038052;28;20635;-73
2022/05/01 01:23:01;;;;;;;3.40;3.20;;;;;;;12.26;67.43;92709.66;5036972;28;20675;-73
2022/05/01 01:25:31;;;;;;;3.27;2.97;;;;;;;12.24;67.93;92705.56;5037727;28;20597;-73
2022/05/01 01:28:02;;;;;;;4.43;2.87;;;;;;;12.29;67.18;92711.22;5037658;28;20576;-73
2022/05/01 01:33:15;;;;;;;3.00;2.80;;;;;;;12.05;67.21;92710.69;5037495;28;20239;-73
2022/05/01 01:35:42;;;;;;;3.13;2.93;;;;;;;11.95;68.05;92701.84;5037174;28;20505;-73
2022/05/01 01:38:11;;;;;;;4.03;3.23;;;;;;;11.95;68.33;92700.16;5037542;28;20555;-73
2022/05/01 01:40:44;;;;;;;3.33;3.10;;;;;;;11.94;68.27;92707.84;5037521;28;20471;-73
2022/05/01 01:43:13;;;;;;;3.83;2.70;;;;;;;11.91;68.25;92708.78;5037051;28;20597;-73
2022/05/01 01:45:41;;;;;;;2.97;2.83;;;;;;;11.71;68.13;92713.09;5037272;28;20209;-73
2022/05/01 01:48:12;;;;;;;3.80;3.47;;;;;;;12.00;67.41;92690.63;5037141;28;20486;-73
2022/05/01 01:50:39;;;;;;;3.43;3.23;;;;;;;11.86;67.21;92697.22;5037080;28;20462;-74
2022/05/01 01:53:08;;;;;;;3.33;3.13;;;;;;;12.04;66.93;92711.56;5036717;28;20465;-73
2022/05/01 01:55:38;;;;;;;3.03;2.80;;;;;;;12.36;66.35;92721.00;5037079;28;20201;-73
2022/05/01 01:58:07;;;;;;;2.97;2.87;;;;;;;12.43;66.15;92729.13;5037434;28;20647;-73
2022/05/01 02:00:34;;;;;;;2.97;2.87;;;;;;;12.31;65.77;92720.41;5036414;28;20629;-73
2022/05/01 02:03:03;;;;;;;3.83;3.07;;;;;;;12.27;66.43;92713.03;5038111;28;20589;-73
2022/05/01 02:05:31;;;;;;;2.97;2.80;;;;;;;12.31;65.92;92711.97;5058290;28;20462;-73
2022/05/01 02:07:59;;;;;;;3.43;3.23;;;;;;;11.99;66.00;92709.25;5041640;27;20570;-73
2022/05/01 02:10:26;;;;;;;3.00;2.70;;;;;;;12.09;66.19;92724.84;5037270;28;20465;-73
2022/05/01 02:12:55;;;;;;;3.20;3.00;;;;;;;12.35;66.01;92732.00;5036367;28;20205;-73
2022/05/01 02:15:23;;;;;;;3.33;3.13;;;;;;;12.24;66.24;92729.16;5036364;28;20600;-72
2022/05/01 02:17:51;;;;;;;3.33;3.03;;;;;;;12.27;65.45;92729.03;5036074;28;20486;-73
2022/05/01 02:20:18;;;;;;;4.30;4.00;;;;;;;12.33;65.38;92723.69;5036583;28;20650;-73
2022/05/01 02:22:45;;;;;;;4.50;4.20;;;;;;;12.11;64.78;92733.19;5036269;28;20461;-73
2022/05/01 02:25:13;;;;;;;4.00;3.80;;;;;;;12.09;64.98;92727.38;5036682;28;20539;-72
2022/05/01 02:27:40;;;;;;;5.00;4.60;;;;;;;12.09;64.83;92722.31;5036953;28;20470;-73
2022/05/01 02:30:10;;;;;;;5.00;4.70;;;;;;;12.37;64.44;92722.63;5036614;28;20212;-73
2022/05/01 02:32:38;;;;;;;5.43;4.93;;;;;;;12.04;65.34;92717.47;5036548;28;20562;-73
2022/05/01 02:35:06;;;;;;;4.67;3.93;;;;;;;12.17;64.79;92709.28;5036103;28;20621;-73
2022/05/01 02:37:33;;;;;;;5.30;4.90;;;;;;;12.08;65.42;92704.63;5036126;28;20460;-73
2022/05/01 02:40:01;;;;;;;5.30;5.00;;;;;;;12.17;65.07;92707.56;5035898;28;20190;-73
2022/05/01 02:42:28;;;;;;;4.73;4.43;;;;;;;12.15;64.81;92708.53;5036131;28;20586;-73
2022/05/01 02:44:55;;;;;;;5.30;5.00;;;;;;;12.14;64.72;92705.19;5035844;28;20613;-73
2022/05/01 02:47:23;;;;;;;7.57;6.90;;;;;;;12.42;64.59;92708.03;5035936;28;20597;-73
2022/05/01 02:49:51;;;;;;;9.63;8.70;;;;;;;11.96;66.04;92690.84;5035589;28;20562;-73
2022/05/01 02:52:18;;;;;;;9.63;7.73;;;;;;;11.46;67.62;92698.19;5036169;28;20265;-73
2022/05/01 02:54:46;;;;;;;17.03;8.73;;;;;;;11.45;68.35;92689.78;5035567;28;20551;-73
2022/05/01 02:57:13;;;;;;;9.13;6.67;;;;;;;11.26;68.95;92688.97;5035807;28;20605;-73
2022/05/01 02:59:41;;;;;;;8.60;7.70;;;;;;;11.38;69.27;92685.06;5035571;28;20459;-73
2022/05/01 03:02:08;;;;;;;5.87;5.57;;;;;;;11.18;69.52;92689.28;5034763;28;20562;-73
2022/05/01 03:04:38;;;;;;;6.77;5.97;;;;;;;11.23;70.16;92669.69;5047812;28;20619;-73
2022/05/01 03:07:07;;;;;;;4.87;4.57;;;;;;;11.23;70.24;92684.84;5054114;28;20591;-73
2022/05/01 03:09:35;;;;;;;5.07;4.77;;;;;;;11.34;69.98;92688.59;5055383;28;20558;-73
2022/05/01 03:12:03;;;;;;;5.77;4.57;;;;;;;11.27;69.97;92685.53;5056130;28;20560;-73
2022/05/01 03:14:30;;;;;;;5.33;3.80;;;;;;;11.19;69.96;92695.19;5055843;27;20293;-73
2022/05/01 03:16:57;;;;;;;5.07;4.70;;;;;;;11.10;70.09;92677.84;5055801;28;20552;-73
2022/05/01 03:22:14;;;;;;;5.10;4.10;;;;;;;11.77;68.05;92682.47;5056544;28;20579;-72
2022/05/01 03:24:42;;;;;;;4.13;3.77;;;;;;;11.84;68.19;92693.94;5055999;28;20723;-73
2022/05/01 03:27:10;;;;;;;4.10;3.90;;;;;;;11.99;67.58;92693.25;5055669;28;20651;-73
2022/05/01 03:29:38;;;;;;;4.57;4.27;;;;;;;11.99;67.75;92688.19;5055794;28;20579;-73
2022/05/01 03:32:07;;;;;;;4.37;4.17;;;;;;;12.13;67.30;92705.25;5055337;28;20487;-73
2022/05/01 03:34:37;;;;;;;4.13;3.93;;;;;;;12.14;67.36;92706.88;5055418;28;20279;-73
2022/05/01 03:37:07;;;;;;;6.97;5.33;;;;;;;12.29;67.02;92709.50;5055371;28;20491;-73
2022/05/01 03:39:37;;;;;;;7.03;5.80;;;;;;;12.34;66.44;92715.16;5055121;28;20483;-73
2022/05/01 03:42:05;;;;;;;6.87;6.33;;;;;;;12.14;66.87;92719.56;5055086;28;20573;-73
2022/05/01 03:44:32;;;;;;;6.87;6.17;;;;;;;11.93;66.64;92716.31;5055337;28;20486;-73
2022/05/01 03:46:59;;;;;;;17.57;9.53;;;;;;;11.75;66.83;92725.56;5055815;28;20283;-73
2022/05/01 03:49:26;;;;;;;38.07;17.37;;;;;;;11.72;67.33;92722.34;5059311;28;20599;-73
2022/05/01 03:51:53;;;;;;;10.53;8.50;;;;;;;11.62;67.80;92726.97;5059449;28;20223;-73
2022/05/01 03:54:21;;;;;;;8.10;7.30;;;;;;;11.53;67.61;92733.28;5059073;28;20219;-73
2022/05/01 03:56:50;;;;;;;8.77;7.07;;;;;;;11.75;67.72;92739.94;5056586;28;20694;-73
2022/05/01 03:59:17;;;;;;;7.83;6.87;;;;;;;11.58;68.38;92738.94;5038179;28;20575;-73
2022/05/01 04:01:44;;;;;;;6.37;5.77;;;;;;;11.60;68.99;92728.75;5039209;28;20526;-73
2022/05/01 04:04:12;;;;;;;6.53;5.90;;;;;;;11.61;69.56;92728.69;5037286;28;20557;-73
2022/05/01 04:06:39;;;;;;;7.83;7.03;;;;;;;11.75;69.80;92732.34;5055625;28;20565;-73
2022/05/01 04:09:06;;;;;;;10.30;9.27;;;;;;;11.91;69.40;92725.69;5058992;28;20581;-72
2022/05/01 04:11:33;;;;;;;10.00;8.07;;;;;;;12.03;68.52;92728.47;5059085;28;20620;-73
2022/05/01 04:14:02;;;;;;;12.97;9.47;;;;;;;12.45;66.96;92724.78;5058341;28;20641;-72
2022/05/01 04:16:30;;;;;;;45.13;21.63;;;;;;;12.41;66.71;92724.13;5058398;28;20197;-72
2022/05/01 04:18:57;;;;;;;19.67;11.93;;;;;;;11.65;69.15;92709.13;5058515;28;20680;-72
2022/05/01 04:21:24;;;;;;;69.97;32.10;;;;;;;11.70;69.59;92727.47;5059276;28;20576;-72
2022/05/01 04:23:51;;;;;;;67.60;36.33;;;;;;;11.98;68.17;92729.56;5058942;28;20204;-72
2022/05/01 04:26:19;;;;;;;140.63;50.50;;;;;;;12.20;68.04;92730.22;5058753;28;20688;-73
2022/05/01 04:31:28;;;;;;;18.10;10.40;;;;;;;12.66;67.48;92740.69;5042803;28;20313;-76
2022/05/01 04:33:56;;;;;;;14.30;10.50;;;;;;;12.26;68.15;92722.34;5043245;28;20456;-76
2022/05/01 04:36:23;;;;;;;10.57;9.20;;;;;;;12.52;67.97;92740.53;5041476;28;20522;-75
2022/05/01 04:38:50;;;;;;;26.27;15.13;;;;;;;13.15;66.14;92739.94;5043004;28;20561;-76
2022/05/01 04:41:18;;;;;;;11.67;9.87;;;;;;;13.41;64.15;92742.88;5040601;28;20501;-75
2022/05/01 04:43:46;;;;;;;16.07;9.93;;;;;;;13.08;65.24;92738.56;5040958;28;20193;-75
2022/05/01 04:46:14;;;;;;;14.47;8.33;;;;;;;13.10;65.53;92739.31;5042373;28;20212;-75
2022/05/01 04:48:42;;;;;;;11.43;8.50;;;;;;;13.56;64.87;92744.59;5040233;28;20557;-77
2022/05/01 04:51:10;;;;;;;13.80;9.77;;;;;;;13.40;65.13;92726.00;5043085;28;20325;-75
2022/05/01 04:53:38;;;;;;;9.87;9.07;;;;;;;13.43;64.66;92738.50;5046277;28;20670;-76
2022/05/01 04:58:47;;;;;;;13.70;9.80;;;;;;;13.65;64.82;92733.97;5039233;28;20220;-76
2022/05/01 05:01:15;;;;;;;17.43;10.97;;;;;;;13.88;64.91;92733.56;5040191;28;20562;-76
2022/05/01 05:03:43;;;;;;;16.87;10.30;;;;;;;14.27;63.92;92738.22;5041257;28;20219;-76
2022/05/01 05:06:10;;;;;;;17.13;11.23;;;;;;;14.05;64.25;92733.50;5048434;28;20563;-75
2022/05/01 05:11:34;;;;;;;29.23;15.00;;;;;;;14.20;63.77;92748.78;4985908;28;20584;-75
2022/05/01 05:14:01;;;;;;;26.03;12.50;;;;;;;13.94;64.45;92743.41;5025048;28;20554;-76
2022/05/01 05:16:29;;;;;;;17.17;11.73;;;;;;;13.95;65.34;92734.06;5044118;28;20479;-75
2022/05/01 05:18:57;;;;;;;12.97;10.17;;;;;;;14.35;63.88;92735.25;5038531;28;20577;-76
2022/05/01 05:21:25;;;;;;;13.80;10.10;;;;;;;14.03;63.73;92739.53;5042496;28;20566;-76
2022/05/01 05:23:52;;;;;;;13.00;9.60;;;;;;;14.03;63.81;92726.84;5037629;28;20483;-75
2022/05/01 05:26:19;;;;;;;240.40;67.10;;;;;;;14.04;64.34;92741.19;5036884;28;20225;-74
2022/05/01 05:28:46;;;;;;;56.57;25.17;;;;;;;14.08;64.50;92748.56;5039354;28;20205;-76
2022/05/01 05:31:13;;;;;;;9.73;5.90;;;;;;;14.05;64.78;92753.81;5041494;28;20201;-78
2022/05/01 05:33:41;;;;;;;7.83;7.23;;;;;;;13.91;65.20;92750.38;5039855;28;20220;-77
2022/05/01 05:36:09;;;;;;;9.03;8.33;;;;;;;14.18;65.70;92751.44;5045550;28;20498;-74
2022/05/01 05:38:38;;;;;;;18.00;11.03;;;;;;;13.74;66.65;92742.84;5041968;28;20467;-76
2022/05/01 05:41:06;;;;;;;27.33;14.00;;;;;;;13.67;67.02;92730.47;5039720;28;20472;-74
2022/05/01 05:43:33;;;;;;;13.67;8.60;;;;;;;13.64;66.97;92738.22;5037736;28;20715;-74
2022/05/01 05:46:00;;;;;;;18.40;11.27;;;;;;;13.79;67.14;92744.22;5041675;28;20649;-75
2022/05/01 05:48:28;;;;;;;16.20;10.17;;;;;;;13.68;67.46;92729.56;5038128;28;20232;-75
2022/05/01 05:50:55;;;;;;;27.90;13.60;;;;;;;14.20;64.65;92746.25;5039464;28;20594;-75
2022/05/01 05:53:24;;;;;;;31.47;14.03;;;;;;;14.17;65.36;92731.19;5046349;28;20204;-75
2022/05/01 05:55:51;;;;;;;19.70;10.70;;;;;;;13.91;66.87;92746.13;5041509;28;20554;-75
2022/05/01 05:58:18;;;;;;;24.90;12.10;;;;;;;14.06;66.74;92745.28;5039696;28;20550;-75
2022/05/01 06:00:46;;;;;;;10.27;9.13;;;;;;;13.87;67.95;92739.53;5037842;28;20473;-75
2022/05/01 06:03:13;;;;;;;19.53;10.77;;;;;;;14.15;67.71;92753.31;5039370;28;20693;-76
2022/05/01 06:05:40;;;;;;;18.87;9.50;;;;;;;14.11;66.82;92758.56;5039143;28;20222;-75
2022/05/01 06:08:09;;;;;;;8.20;7.40;;;;;;;14.17;66.84;92756.59;5038884;28;20477;-76
2022/05/01 06:10:38;;;;;;;8.83;7.60;;;;;;;14.29;67.16;92751.66;5036785;28;20587;-76
2022/05/01 06:13:06;;;;;;;7.27;6.73;;;;;;;14.23;67.54;92746.09;5037693;28;20532;-76
2022/05/01 06:15:33;;;;;;;7.37;6.60;;;;;;;14.23;67.05;92743.56;5039008;28;20209;-75
2022/05/01 06:18:00;;;;;;;6.50;5.90;;;;;;;14.29;66.67;92736.41;5039127;28;20525;-77
2022/05/01 06:20:30;;;;;;;8.00;7.23;;;;;;;14.62;66.20;92743.94;5040508;28;20584;-75
2022/05/01 06:22:57;;;;;;;8.67;7.57;;;;;;;14.58;66.50;92745.00;5038670;28;20581;-76
2022/05/01 06:25:25;;;;;;;7.53;6.83;;;;;;;14.50;65.26;92737.81;5038360;28;20599;-76
2022/05/01 06:27:53;;;;;;;7.47;6.87;;;;;;;14.81;65.38;92733.56;5038671;28;20554;-76
2022/05/01 06:30:21;;;;;;;6.87;6.30;;;;;;;14.71;65.33;92743.41;5040275;28;20479;-77
2022/05/01 06:32:50;;;;;;;8.70;7.83;;;;;;;14.79;65.64;92735.34;5038886;28;20198;-76
2022/05/01 06:35:18;;;;;;;8.90;7.93;;;;;;;15.13;65.58;92750.31;5038242;28;20528;-77
2022/05/01 06:37:46;;;;;;;20.63;12.13;;;;;;;15.17;65.11;92743.31;5038159;28;20200;-76
2022/05/01 06:40:14;;;;;;;34.43;18.67;;;;;;;15.51;64.22;92762.53;5036242;28;20566;-76
2022/05/01 06:42:41;;;;;;;13.37;9.57;;;;;;;15.50;63.32;92743.06;5038438;28;20240;-79
2022/05/01 06:45:11;;;;;;;9.00;7.63;;;;;;;15.82;61.96;92741.19;5040068;28;20209;-74
2022/05/01 06:47:38;;;;;;;8.77;7.70;;;;;;;15.67;63.04;92761.56;5038188;28;20551;-77
2022/05/01 06:50:06;;;;;;;10.50;9.17;;;;;;;15.81;63.00;92755.66;5037785;28;20201;-75
2022/05/01 06:52:33;;;;;;;8.93;8.03;;;;;;;15.70;63.61;92763.13;5038300;28;20213;-76
2022/05/01 06:55:00;;;;;;;8.20;7.50;;;;;;;15.55;63.15;92762.28;5040241;28;20578;-75
2022/05/01 06:57:29;;;;;;;8.97;7.90;;;;;;;15.50;63.77;92755.78;5038226;28;20570;-77
2022/05/01 06:59:56;;;;;;;10.97;8.73;;;;;;;15.51;64.21;92744.69;5035888;28;20593;-74
2022/05/01 07:02:25;;;;;;;11.13;9.53;;;;;;;15.58;64.38;92753.66;5038536;28;20552;-74
2022/05/01 07:04:52;;;;;;;12.70;10.13;;;;;;;15.49;64.51;92761.81;5045687;28;20557;-77
2022/05/01 07:07:20;;;;;;;10.70;9.67;;;;;;;15.44;64.62;92751.88;5040271;28;20284;-76
2022/05/01 07:09:47;;;;;;;12.90;8.53;;;;;;;15.52;64.17;92762.47;5035709;28;20562;-76
2022/05/01 07:12:14;;;;;;;11.73;8.67;;;;;;;15.66;64.33;92754.81;5037848;28;20205;-75
2022/05/01 07:14:43;;;;;;;18.47;11.07;;;;;;;15.92;63.90;92760.91;5036633;28;20517;-77
2022/05/01 07:17:11;;;;;;;59.33;16.63;;;;;;;15.96;63.80;92751.34;5035783;28;20580;-76
2022/05/01 07:19:39;;;;;;;39.40;13.40;;;;;;;16.30;62.82;92761.09;5039509;28;20219;-75
2022/05/01 07:22:06;;;;;;;21.07;10.47;;;;;;;16.02;62.72;92745.88;5037052;28;20616;-76
2022/05/01 07:24:34;;;;;;;24.27;13.43;;;;;;;16.26;63.54;92752.00;5035582;28;20454;-76
2022/05/01 07:27:01;;;;;;;29.57;14.70;;;;;;;16.21;64.06;92746.38;5043718;28;20217;-74
2022/05/01 07:29:28;;;;;;;16.10;10.83;;;;;;;16.37;64.07;92746.25;5055425;28;20634;-76
2022/05/01 07:31:55;;;;;;;70.00;24.63;;;;;;;16.10;64.11;92753.88;5055521;28;20573;-74
2022/05/01 07:34:22;;;;;;;143.03;40.93;;;;;;;16.21;64.81;92740.47;5055252;28;20669;-74
2022/05/01 07:36:51;;;;;;;36.07;16.13;;;;;;;16.55;64.75;92740.00;5051219;28;20532;-74
2022/05/01 07:39:18;;;;;;;25.43;11.63;;;;;;;16.40;64.93;92741.75;5037572;28;20597;-74
2022/05/01 07:41:46;;;;;;;33.87;12.23;;;;;;;16.27;64.73;92742.63;5036208;28;20227;-74
2022/05/01 07:44:13;;;;;;;15.93;9.07;;;;;;;16.29;63.21;92748.44;5036197;28;20455;-76
2022/05/01 07:46:40;;;;;;;16.70;8.00;;;;;;;16.78;61.59;92748.75;5034976;28;20501;-74
2022/05/01 07:49:08;;;;;;;24.77;10.43;;;;;;;16.80;61.80;92731.59;5035704;28;20585;-75
2022/05/01 07:51:36;;;;;;;5.90;5.37;;;;;;;16.64;60.12;92757.28;5047645;28;20592;-74
2022/05/01 07:54:05;;;;;;;6.60;5.47;;;;;;;16.74;58.90;92760.88;5051747;28;20593;-76
2022/05/01 07:56:33;;;;;;;7.73;5.23;;;;;;;16.79;54.36;92789.47;5043896;28;20593;-74
2022/05/01 07:59:01;;;;;;;51.60;15.07;;;;;;;16.46;54.50;92779.63;5041010;28;20454;-75
2022/05/01 08:01:28;;;;;;;33.07;17.17;;;;;;;15.87;54.55;92778.22;5036214;28;20572;-75
2022/05/01 08:06:40;;;;;;;3.63;3.42;;;;;;;16.20;53.78;92780.44;5036797;28;20612;-75
2022/05/01 08:09:09;;;;;;;10.70;9.70;;;;;;;16.85;52.01;92780.59;5034751;28;20215;-75
2022/05/01 08:11:36;;;;;;;4.82;4.53;;;;;;;17.01;52.46;92778.72;5036189;28;20703;-73
2022/05/01 08:14:04;;;;;;;3.90;3.70;;;;;;;17.44;51.43;92781.84;5035058;28;20467;-74
2022/05/01 08:16:31;;;;;;;4.55;4.25;;;;;;;16.96;50.46;92785.84;5034705;28;20197;-74
2022/05/01 08:21:43;;;;;;;11.20;10.20;;;;;;;17.03;50.60;92781.97;5034674;28;20585;-77
2022/05/01 08:24:11;;;;;;;4.38;4.13;;;;;;;17.53;50.48;92770.16;5047292;28;20592;-75
2022/05/01 08:26:39;;;;;;;67.55;25.77;;;;;;;17.65;50.15;92774.50;5039324;28;20632;-73
2022/05/01 08:29:06;;;;;;;61.08;19.52;;;;;;;17.35;49.51;92767.13;5036235;28;20576;-74
2022/05/01 08:31:34;;;;;;;8.70;5.10;;;;;;;17.21;49.53;92778.25;5036907;28;20217;-74
2022/05/01 08:34:01;;;;;;;26.08;11.07;;;;;;;17.24;49.83;92772.91;5040425;28;20190;-75
2022/05/01 08:36:29;;;;;;;5.10;4.70;;;;;;;17.37;49.44;92762.72;5039675;28;20524;-74
2022/05/01 08:38:56;;;;;;;3.95;3.72;;;;;;;17.88;49.26;92768.66;5057787;28;20549;-74
2022/05/01 08:41:28;;;;;;;134.38;30.48;;;;;;;18.16;48.53;92770.94;5057005;28;20557;-74
2022/05/01 08:43:58;;;;;;;5.45;4.90;;;;;;;18.34;49.17;92763.75;5057006;27;20267;-74
2022/05/01 08:46:41;;;;;;;19.85;8.68;;;;;;;18.30;47.66;92776.88;5046464;28;20632;-74
2022/05/01 08:49:10;;;;;;;88.03;22.92;;;;;;;17.92;47.18;92771.81;5058554;28;20300;-72
2022/05/01 08:51:38;;;;;;;29.30;10.00;;;;;;;17.78;46.83;92765.91;5058503;28;20588;-73
2022/05/01 08:54:08;;;;;;;39.90;15.40;;;;;;;18.01;46.09;92776.31;5058968;28;20471;-72
2022/05/01 08:56:40;;;;;;;35.72;12.98;;;;;;;18.30;44.43;92784.53;5058305;28;20625;-73
2022/05/01 08:59:09;;;;;;;34.28;12.23;;;;;;;18.33;45.21;92774.91;5058053;28;20589;-73
2022/05/01 09:01:38;;;;;;;49.13;17.50;;;;;;;18.51;44.29;92780.47;5058223;28;20635;-75
2022/05/01 09:04:06;;;;;;;4.50;4.05;;;;;;;18.73;45.52;92774.69;5050999;28;20635;-72
2022/05/01 09:06:34;;;;;;;43.90;16.38;;;;;;;18.87;44.18;92783.00;5037512;28;20640;-72
2022/05/01 09:09:05;;;;;;;34.35;12.13;;;;;;;18.73;42.65;92793.41;5038167;28;20553;-72
2022/05/01 09:14:20;;;;;;;8.38;5.78;;;;;;;18.28;43.96;92783.81;5037599;28;20628;-74
2022/05/01 09:17:12;;;;;;;3.28;2.97;;;;;;;18.57;43.88;92774.94;5037628;28;20483;-73
2022/05/01 09:19:39;;;;;;;48.92;17.08;;;;;;;18.05;44.12;92763.22;5037868;28;20610;-73
2022/05/01 09:22:07;;;;;;;5.25;3.50;;;;;;;18.44;43.03;92772.41;5053143;28;20573;-74
2022/05/01 09:24:34;;;;;;;5.95;4.05;;;;;;;18.34;43.89;92757.81;5036954;28;20569;-75
2022/05/01 09:27:02;;;;;;;3.88;3.47;;;;;;;18.80;44.49;92745.16;5036896;28;20616;-72
2022/05/01 09:29:34;;;;;;;6.07;3.83;;;;;;;18.85;42.60;92764.38;5037000;28;20675;-74
2022/05/01 09:32:03;;;;;;;2.60;2.50;;;;;;;18.36;42.98;92749.13;5037252;28;20225;-74
2022/05/01 09:34:35;;;;;;;2.80;2.50;;;;;;;18.50;42.61;92753.25;5037765;28;20457;-74
2022/05/01 09:37:04;;;;;;;45.85;15.63;;;;;;;18.42;43.10;92750.44;5038657;28;20573;-74
2022/05/01 09:39:33;;;;;;;33.13;14.73;;;;;;;18.39;42.36;92754.00;5043703;27;20496;-74
2022/05/01 09:42:16;;;;;;;9.93;7.85;;;;;;;18.26;41.49;92734.50;5047810;28;20581;-74
2022/05/01 09:44:45;;;;;;;23.50;9.95;;;;;;;18.20;41.58;92746.78;5035423;28;20570;-73
2022/05/01 09:47:13;;;;;;;4.97;4.50;;;;;;;18.41;43.02;92731.69;5041671;28;20491;-72
2022/05/01 09:49:50;;;;;;;47.53;18.42;;;;;;;19.07;44.08;92714.16;5050466;27;20554;-72
2022/05/01 09:52:19;;;;;;;13.13;6.15;;;;;;;19.13;42.40;92739.31;5038761;28;20585;-73
2022/05/01 09:55:05;;;;;;;98.00;30.40;;;;;;;19.13;43.34;92719.66;5036937;28;20490;-73
2022/05/01 09:57:32;;;;;;;25.98;11.45;;;;;;;18.78;43.70;92714.53;5047789;28;20603;-73
2022/05/01 10:00:01;;;;;;;58.13;19.90;;;;;;;18.94;43.78;92716.81;5044097;28;20662;-74
2022/05/01 10:02:31;;;;;;;19.30;10.13;;;;;;;19.00;43.65;92706.94;5036841;28;20216;-74
2022/05/01 10:05:03;;;;;;;84.28;25.08;;;;;;;18.82;42.92;92715.94;5045587;28;20274;-73
2022/05/01 10:07:37;;;;;;;8.07;7.38;;;;;;;19.42;42.78;92722.63;5039581;28;20346;-72
2022/05/01 10:10:08;;;;;;;7.30;5.80;;;;;;;19.82;44.25;92705.91;5036361;28;20196;-74
2022/05/01 10:12:41;;;;;;;3.92;3.72;;;;;;;19.81;40.92;92724.78;5035838;28;20605;-74
2022/05/01 10:15:11;;;;;;;2.80;2.70;;;;;;;19.22;41.05;92720.72;5036722;28;20343;-73
2022/05/01 10:17:39;;;;;;;3.40;3.17;;;;;;;19.48;41.71;92714.50;5036204;28;20208;-74
2022/05/01 10:20:08;;;;;;;3.80;3.47;;;;;;;20.27;42.39;92698.13;5036045;28;20502;-73
2022/05/01 10:22:36;;;;;;;3.47;3.28;;;;;;;;;;5035544;28;20625;-72
2022/05/01 10:25:06;;;;;;;2.72;2.63;;;;;;;22.98;35.08;92743.19;5035722;28;20478;-72
2022/05/01 10:27:41;;;;;;;2.78;2.67;;;;;;;23.74;33.73;92733.72;5035976;28;20622;-73
2022/05/01 10:33:28;;;;;;;3.13;2.92;;;;;;;23.08;33.98;92737.06;5035404;28;20620;-74
2022/05/01 10:36:24;;;;;;;3.45;3.20;;;;;;;22.75;35.44;92724.59;5034548;28;20617;-73
2022/05/01 10:39:05;;;;;;;3.30;3.20;;;;;;;21.72;35.90;92712.88;5034787;28;20464;-73
2022/05/01 10:41:34;;;;;;;3.83;3.60;;;;;;;19.97;38.31;92680.81;5035625;28;20643;-73
2022/05/01 10:44:03;;;;;;;4.00;3.80;;;;;;;19.94;40.26;92677.69;5034022;28;20585;-72
2022/05/01 10:46:33;;;;;;;3.25;3.15;;;;;;;20.59;39.02;92681.03;5034493;28;20602;-72
2022/05/01 10:49:05;;;;;;;5.78;4.68;;;;;;;21.24;37.68;92685.16;5033950;28;20675;-73
2022/05/01 10:51:52;;;;;;;3.05;2.72;;;;;;;20.80;35.63;92709.28;5035400;28;20635;-71
2022/05/01 10:54:38;;;;;;;2.45;2.35;;;;;;;21.04;36.37;92678.25;5035673;28;20493;-72
2022/05/01 10:57:14;;;;;;;2.15;2.05;;;;;;;21.71;33.39;92716.38;5054105;28;20484;-72
2022/05/01 10:59:46;;;;;;;2.50;2.40;;;;;;;22.22;33.32;92724.06;5055909;28;20557;-74
2022/05/01 11:02:58;;;;;;;2.38;2.28;;;;;;;23.71;33.89;92714.19;5056353;28;20629;-72
2022/05/01 11:05:44;;;;;;;2.67;2.47;;;;;;;24.82;32.76;92703.72;5036128;28;20447;-71
2022/05/01 11:08:16;;;;;;;2.85;2.63;;;;;;;24.30;31.89;92728.50;5033593;28;20661;-73
2022/05/01 11:10:44;;;;;;;3.17;2.10;;;;;;;23.30;32.46;92730.00;5033739;28;20585;-73
2022/05/01 11:13:14;;;;;;;2.92;2.83;;;;;;;23.81;32.72;92721.91;5035082;28;20197;-73
2022/05/01 11:15:47;;;;;;;2.80;2.70;;;;;;;25.10;30.91;92720.81;5035681;28;20519;-72
2022/05/01 11:18:15;;;;;;;1.92;1.83;;;;;;;25.17;29.36;92742.53;5035003;28;20193;-74
2022/05/01 11:20:46;;;;;;;1.88;1.77;;;;;;;25.25;29.07;92736.59;5034490;28;20497;-72
2022/05/01 11:23:34;;;;;;;2.50;2.40;;;;;;;24.75;29.57;92731.91;5038050;28;20220;-73
2022/05/01 11:26:09;;;;;;;4.70;4.30;;;;;;;23.78;29.44;92746.22;5053718;28;20577;-74
2022/05/01 11:28:54;;;;;;;4.50;4.20;;;;;;;22.81;31.49;92728.38;5054741;28;20574;-74
2022/05/01 11:31:44;;;;;;;2.30;2.20;;;;;;;21.59;32.24;92727.69;5034378;28;20220;-71
2022/05/01 11:34:39;;;;;;;4.03;3.83;;;;;;;21.27;33.13;92694.38;5034769;28;20550;-75
2022/05/01 11:37:09;;;;;;;2.65;2.55;;;;;;;20.74;33.97;92662.75;5034173;28;20606;-71
2022/05/01 11:40:28;;;;;;;6.40;6.00;;;;;;;21.12;34.15;92687.91;5034852;28;20466;-72
2022/05/01 11:43:23;;;;;;;44.85;16.80;;;;;;;21.44;35.81;92660.38;5045717;28;20604;-73
2022/05/01 11:45:53;;;;;;;4.53;4.22;;;;;;;20.64;35.55;92673.75;5009734;28;20494;-72
2022/05/01 11:48:22;;;;;;;2.25;2.15;;;;;;;20.90;34.88;92670.84;5044857;28;20520;-73
2022/05/01 11:50:51;;;;;;;2.42;2.33;;;;;;;20.61;34.78;92676.59;5040624;28;20229;-74
2022/05/01 11:53:23;;;;;;;5.40;2.00;;;;;;;20.72;34.56;92656.94;5049024;28;20483;-75
2022/05/01 12:04:37;;;;;;;2.08;1.98;;;;;;;20.53;33.90;92666.09;5037318;28;20628;-75
2022/05/01 12:07:12;;;;;;;1.58;1.50;;;;;;;20.61;34.40;92658.63;5039534;28;20614;-75
2022/05/01 12:09:42;;;;;;;1.90;1.80;;;;;;;20.98;35.45;92645.34;5036839;28;20454;-73
2022/05/01 12:12:11;;;;;;;1.95;1.85;;;;;;;21.07;34.66;92631.72;5038506;28;20508;-74
2022/05/01 12:14:40;;;;;;;3.25;3.15;;;;;;;21.16;33.36;92635.34;5038179;28;20589;-75
2022/05/01 12:17:08;;;;;;;2.20;2.10;;;;;;;21.08;33.26;92618.75;5038022;28;20653;-77
2022/05/01 12:19:36;;;;;;;5.38;4.45;;;;;;;20.84;33.52;92640.53;5038876;28;20202;-76